Airfield :







YOU CAN JOIN US ON...

 
LOGIN :

Register | Disclaimer

   EN    FR    IT 

 









Legend :    VFR   Marginal VFR   IFR   Intensive IFR   Very Intensive IFR
Visi :
Ceiling :
>= 8 km
>= 3000ft
5 to 8 km
1000 to 3000 ft
1500m to 5 km
500 to 1000 ft
800 to 1500m
200 to 500 ft
< 800m
< 200 ft
Symbols :   Thunderstorms  Fog  Heavy snow  Heavy precipitations  Wind > 20 kt






- Airport Elevation : 244 ft
- IATA code : YQB


CYQB - Quebec - Jean Lesage Int.

CURRENT METAR :
  • 241700Z 27008KT 30SM FEW010 OVC038 02/M03 A2979 RMK SF1SC8 SLP094

EXPIRED METARs :
  • 241600Z 26014KT 25SM FEW010 OVC034 01/M02 A2981 RMK SF1SC8 SF TR SLP102
  • 241500Z 26012KT 15SM FEW007 OVC034 01/M02 A2981 RMK SF1SC8 SF TR SLP100

TAF TAF CYQB
Valid from the 24 at 12:00 until the 25 at 12:00 UTC


241138Z 2412/2512 25015KT P6SM SCT008 BKN030 OVC090
TEMPO 2412/2415 2SM -SN BR BKN006 OVC020
FM241600 25010G20KT P6SM BKN030 BKN150
FM242000 25012KT 21/2SM -SNRA SCT008 OVC020
FM242200 VRB03KT 1SM -SN OVC008
PROB40 2502/2506 1/2SM SN VV005
FM250900 30008G18KT P6SM -SHSN BKN030 OVC050 RMK NXT FCST BY 241800Z
ATIS : ENG : +1 418-871-6893 FRA : +1 418-871-6895
CZUL FIR / North America



MET'MAP, your aeronautical weather chart ! - Copyright ORBIFLY December 2007 - Disclaimer

ORBIFLY MET'MAP TEAM :

Programming & Development : Alexandra Zaïnal
Concept & original design : Baudouin d'Aumeries
Assistance for programming : Marc-Olivier Méhu
Technical & hardware support : Manuel Goepfert

Contact : metmap@orbifly.com




SOURCES & CREDITS :

   NOAA